Daska Weather



Daska's Current Weather

Temprature 35o few clouds

few clouds

Rain: 0 %

Min Temprature35o
Max Temprature35o
Humidity28
Wind Speed2.06 m/h
Sun Rise05:10:02
Sun Set18:48:10
Current Time: 08-May-2021 14:32:57
Lat/Lon: 32.3243, 74.3497




Daska's Geo Location



Daska's Weather Forecast

Time Overall Temp Min Temp Max Temp Humidity Wind Speed Rain
08-May-2021 (Sat)
17:00:00 scattered clouds 35.430 35.430 36.290 25 2.22 m/h 0 %
20:00:00 few clouds 32.780 31.670 32.780 26 0.33 m/h 0 %
23:00:00 scattered clouds 27.800 27.800 27.800 35 1.91 m/h 0 %
09-May-2021 (Sun)
02:00:00 broken clouds 26.290 26.290 26.290 39 2.79 m/h 0 %
05:00:00 scattered clouds 25.150 25.150 25.150 40 2.61 m/h 0 %
08:00:00 clear sky 31.970 31.970 31.970 25 3.08 m/h 0 %
11:00:00 light rain 37.460 37.460 37.460 18 1.73 m/h 15 %
14:00:00 broken clouds 39.900 39.900 39.900 14 2.62 m/h 0 %
17:00:00 broken clouds 28.570 28.570 28.570 37 10.54 m/h 0 %
20:00:00 light rain 28.340 28.340 28.340 35 7.97 m/h 22 %
23:00:00 overcast clouds 27.420 27.420 27.420 40 3.02 m/h 0 %
10-May-2021 (Mon)
02:00:00 light rain 25.630 25.630 25.630 49 2.92 m/h 50 %
05:00:00 overcast clouds 25.140 25.140 25.140 47 2 m/h 0 %
08:00:00 light rain 30.700 30.700 30.700 31 3.17 m/h 35 %
11:00:00 broken clouds 37.120 37.120 37.120 18 2.15 m/h 0 %
14:00:00 overcast clouds 40.220 40.220 40.220 14 1.01 m/h 0 %
17:00:00 broken clouds 39.460 39.460 39.460 13 1.8 m/h 0 %
20:00:00 clear sky 33.680 33.680 33.680 20 4 m/h 0 %
23:00:00 clear sky 28.400 28.400 28.400 35 2.73 m/h 0 %
11-May-2021 (Tue)
02:00:00 light rain 27.760 27.760 27.760 35 1.68 m/h 22 %
05:00:00 broken clouds 25.740 25.740 25.740 42 3.2 m/h 0 %
08:00:00 light rain 31.840 31.840 31.840 26 1.71 m/h 13 %
11:00:00 broken clouds 38.100 38.100 38.100 16 3.22 m/h 0 %
14:00:00 scattered clouds 40.920 40.920 40.920 13 2.47 m/h 0 %
17:00:00 scattered clouds 40.900 40.900 40.900 12 2.07 m/h 0 %
20:00:00 scattered clouds 29.740 29.740 29.740 31 7.49 m/h 0 %
23:00:00 light rain 28.160 28.160 28.160 38 0.86 m/h 19 %
12-May-2021 (Wed)
02:00:00 light rain 25.350 25.350 25.350 51 5.15 m/h 248 %
05:00:00 overcast clouds 25.780 25.780 25.780 48 2.72 m/h 0 %
08:00:00 overcast clouds 29.640 29.640 29.640 35 4.25 m/h 0 %
11:00:00 light rain 32.530 32.530 32.530 29 4.17 m/h 46 %
14:00:00 light rain 31.000 31.000 31.000 33 5.41 m/h 47 %
17:00:00 overcast clouds 31.620 31.620 31.620 31 6.6 m/h 0 %
20:00:00 overcast clouds 26.010 26.010 26.010 48 5.67 m/h 0 %
23:00:00 light rain 24.310 24.310 24.310 56 1.44 m/h 23 %
13-May-2021 (Thu)
02:00:00 light rain 23.420 23.420 23.420 59 2.46 m/h 58 %
05:00:00 light rain 22.210 22.210 22.210 67 1.48 m/h 95 %
08:00:00 light rain 22.740 22.740 22.740 69 3.72 m/h 121 %
11:00:00 overcast clouds 28.520 28.520 28.520 48 4.89 m/h 0 %
14:00:00 broken clouds 30.080 30.080 30.080 42 5.86 m/h 0 %

Famous Cities (60)